Terminal Aerodrome Forecast
Issued by NWS Cleveland, OH

Home | Current Version | Previous Version | Text Only | Print | Product List | Glossary Off
Versions: 1 2 3 4 5 6 7 8 9 10 11 12 13 14 15 16 17 18 19 20 21 22

840
FTUS41 KCLE 211730
TAFYNG
TAF
KYNG 211730Z 2118/2218 09007KT P6SM SCT040 BKN150
     FM220200 10006KT 5SM -TSRA OVC025CB
      TEMPO 2203/2205 2SM -TSRA OVC012CB
     FM220600 14008KT 5SM -SHRA OVC025
     FM220900 18006KT 3SM BR OVC012=

USA.gov is the U.S. government's official web portal to all federal, state and local government web resources and services.